Time;durP1;ratioP1;P1;durP2;ratioP2;P2;SDS_P1;SDS_P2;PMS_P1;PMS_P2;Temp;Humidity;BMP_temperature;BMP_pressure;BME280_temperature;BME280_humidity;BME280_pressure;Samples;Min_cycle;Max_cycle;Signal;HPM_P1;HPM_P2
2024/01/24 00:01:49;;;;;;;9.02;3.65;;;;;;;;;;5092326;28;20499;-80
2024/01/24 00:04:15;;;;;;;8.10;2.92;;;;;;;;;;5091704;28;20047;-80
2024/01/24 00:06:41;;;;;;;7.50;3.38;;;;;;;;;;5092071;28;20032;-80
2024/01/24 00:09:07;;;;;;;9.50;2.97;;;;;;;;;;5091945;28;20028;-80
2024/01/24 00:11:33;;;;;;;6.63;2.65;;;;;;;;;;5092041;28;20035;-79
2024/01/24 00:13:59;;;;;;;9.80;3.10;;;;;;;;;;5091717;28;20375;-80
2024/01/24 00:16:25;;;;;;;13.75;3.65;;;;;;;;;;5093463;28;20031;-80
2024/01/24 00:18:51;;;;;;;10.93;2.50;;;;;;;;;;5091756;28;20070;-79
2024/01/24 00:21:17;;;;;;;6.07;2.97;;;;;;;;;;5091896;28;20016;-78
2024/01/24 00:23:43;;;;;;;4.18;2.10;;;;;;;;;;5093567;28;20020;-80
2024/01/24 00:26:09;;;;;;;8.05;2.38;;;;;;;;;;5093964;28;20470;-78
2024/01/24 00:28:35;;;;;;;5.85;1.70;;;;;;;;;;5093623;28;20020;-79
2024/01/24 00:31:01;;;;;;;8.55;2.58;;;;;;;;;;5093025;28;20016;-78
2024/01/24 00:33:29;;;;;;;5.38;2.05;;;;;;;;;;5091893;28;20020;-80
2024/01/24 00:35:55;;;;;;;7.10;1.58;;;;;;;;;;5092014;28;20027;-79
2024/01/24 00:38:21;;;;;;;3.90;1.27;;;;;;;;;;5093332;28;20020;-79
2024/01/24 00:40:47;;;;;;;6.65;1.60;;;;;;;;;;5092033;28;20027;-81
2024/01/24 00:43:13;;;;;;;4.00;1.75;;;;;;;;;;5091283;28;20530;-79
2024/01/24 00:45:40;;;;;;;4.50;1.40;;;;;;;;;;5092700;28;20044;-78
2024/01/24 00:48:06;;;;;;;7.22;1.67;;;;;;;;;;5091273;28;20016;-78
2024/01/24 00:50:34;;;;;;;2.88;1.40;;;;;;;;;;5091730;28;20537;-77
2024/01/24 00:53:04;;;;;;;5.45;1.52;;;;;;;;;;5092632;28;20031;-78
2024/01/24 00:55:31;;;;;;;3.80;1.35;;;;;;;;;;5091860;28;20028;-80
2024/01/24 00:57:58;;;;;;;3.92;1.50;;;;;;;;;;5091235;28;20024;-79
2024/01/24 01:00:24;;;;;;;6.72;1.52;;;;;;;;;;5091759;28;20024;-79
2024/01/24 01:02:50;;;;;;;3.13;1.33;;;;;;;;;;5091468;28;20044;-79
2024/01/24 01:05:16;;;;;;;2.92;1.40;;;;;;;;;;5090989;28;20371;-78
2024/01/24 01:07:42;;;;;;;4.78;1.73;;;;;;;;;;5092402;28;20020;-79
2024/01/24 01:10:11;;;;;;;2.88;1.40;;;;;;;;;;5090886;28;20039;-80
2024/01/24 01:12:37;;;;;;;6.28;1.98;;;;;;;;;;5092739;28;20021;-79
2024/01/24 01:15:03;;;;;;;3.53;1.40;;;;;;;;;;5096114;28;20048;-78
2024/01/24 01:17:29;;;;;;;4.10;1.40;;;;;;;;;;5095126;28;20105;-79
2024/01/24 01:19:55;;;;;;;5.18;1.80;;;;;;;;;;5096837;28;20111;-78
2024/01/24 01:22:21;;;;;;;1.98;1.23;;;;;;;;;;5096487;28;20024;-78
2024/01/24 01:24:47;;;;;;;3.35;1.77;;;;;;;;;;5095645;28;20081;-79
2024/01/24 01:27:13;;;;;;;3.40;1.88;;;;;;;;;;5094955;28;20039;-78
2024/01/24 01:29:39;;;;;;;3.80;2.00;;;;;;;;;;5095583;28;20028;-77
2024/01/24 01:32:06;;;;;;;3.47;1.50;;;;;;;;;;5095404;28;20375;-81
2024/01/24 01:34:32;;;;;;;6.32;2.17;;;;;;;;;;5095391;28;20058;-78
2024/01/24 01:36:58;;;;;;;4.93;2.15;;;;;;;;;;5094790;28;20032;-79
2024/01/24 01:39:24;;;;;;;2.63;1.58;;;;;;;;;;5096165;28;20024;-79
2024/01/24 01:41:50;;;;;;;4.18;2.05;;;;;;;;;;5094774;28;20024;-79
2024/01/24 01:44:16;;;;;;;6.55;2.92;;;;;;;;;;5096255;28;20039;-79
2024/01/24 01:46:43;;;;;;;5.32;3.33;;;;;;;;;;5096252;28;20468;-80
2024/01/24 01:49:09;;;;;;;6.57;4.15;;;;;;;;;;5096027;28;20131;-79
2024/01/24 01:51:36;;;;;;;4.80;3.50;;;;;;;;;;5097065;28;20023;-77
2024/01/24 01:54:02;;;;;;;6.97;3.75;;;;;;;;;;5094619;28;20043;-78
2024/01/24 01:56:28;;;;;;;6.10;3.00;;;;;;;;;;5094815;28;20031;-79
2024/01/24 01:58:55;;;;;;;4.63;2.85;;;;;;;;;;5094850;28;20024;-79
2024/01/24 02:01:21;;;;;;;8.23;4.80;;;;;;;;;;5095721;28;20078;-79
2024/01/24 02:03:47;;;;;;;4.10;2.55;;;;;;;;;;5094413;28;20108;-78
2024/01/24 02:06:13;;;;;;;5.22;3.83;;;;;;;;;;5095958;28;20028;-78
2024/01/24 02:08:39;;;;;;;5.25;3.03;;;;;;;;;;5095992;28;20103;-79
2024/01/24 02:11:06;;;;;;;6.10;3.92;;;;;;;;;;5094329;28;20028;-78
2024/01/24 02:13:32;;;;;;;4.40;3.20;;;;;;;;;;5096069;28;20081;-78
2024/01/24 02:16:03;;;;;;;3.35;2.47;;;;;;;;;;5095222;28;20032;-80
2024/01/24 02:18:29;;;;;;;3.83;2.72;;;;;;;;;;5094503;28;20446;-80
2024/01/24 02:20:55;;;;;;;4.63;3.40;;;;;;;;;;5094200;28;20059;-79
2024/01/24 02:23:23;;;;;;;5.35;3.42;;;;;;;;;;5095275;28;20017;-79
2024/01/24 02:25:50;;;;;;;5.10;2.63;;;;;;;;;;5093493;28;20479;-78
2024/01/24 02:28:16;;;;;;;6.10;3.55;;;;;;;;;;5093688;28;20056;-78
2024/01/24 02:30:42;;;;;;;5.28;3.45;;;;;;;;;;5095165;28;20043;-78
2024/01/24 02:33:08;;;;;;;10.65;4.20;;;;;;;;;;5093523;28;20024;-79
2024/01/24 02:35:34;;;;;;;6.88;4.03;;;;;;;;;;5093793;28;20020;-79
2024/01/24 02:38:01;;;;;;;5.70;2.88;;;;;;;;;;5093773;28;20070;-80
2024/01/24 02:40:30;;;;;;;4.70;2.58;;;;;;;;;;5094970;28;20020;-79
2024/01/24 02:42:55;;;;;;;5.20;3.20;;;;;;;;;;5093688;28;20052;-79
2024/01/24 02:45:21;;;;;;;3.95;2.25;;;;;;;;;;5093324;28;20487;-80
2024/01/24 02:47:48;;;;;;;4.05;2.15;;;;;;;;;;5093642;28;20146;-80
2024/01/24 02:50:14;;;;;;;3.38;1.92;;;;;;;;;;5095072;28;20035;-79
2024/01/24 02:52:40;;;;;;;4.13;2.38;;;;;;;;;;5094664;28;20031;-78
2024/01/24 02:55:07;;;;;;;3.88;2.10;;;;;;;;;;5093833;28;20027;-77
2024/01/24 02:57:33;;;;;;;3.47;1.70;;;;;;;;;;5093390;28;20031;-79
2024/01/24 02:59:59;;;;;;;2.92;1.88;;;;;;;;;;5092998;28;20460;-79
2024/01/24 03:02:26;;;;;;;5.03;1.80;;;;;;;;;;5094370;28;20055;-78
2024/01/24 03:04:52;;;;;;;2.35;1.60;;;;;;;;;;5093226;28;20364;-78
2024/01/24 03:07:18;;;;;;;4.30;1.63;;;;;;;;;;5094219;28;20122;-78
2024/01/24 03:09:44;;;;;;;4.53;1.63;;;;;;;;;;5094816;28;20111;-81
2024/01/24 03:12:10;;;;;;;4.40;1.65;;;;;;;;;;5092686;28;20028;-81
2024/01/24 03:14:36;;;;;;;5.60;1.88;;;;;;;;;;5093062;28;20052;-82
2024/01/24 03:17:02;;;;;;;4.03;1.98;;;;;;;;;;5092876;28;20055;-81
2024/01/24 03:19:28;;;;;;;5.03;1.80;;;;;;;;;;5093883;28;20032;-82
2024/01/24 03:21:54;;;;;;;4.90;2.00;;;;;;;;;;5092700;28;20034;-82
2024/01/24 03:24:20;;;;;;;5.53;2.30;;;;;;;;;;5092633;28;20467;-79
2024/01/24 03:26:46;;;;;;;4.50;2.05;;;;;;;;;;5092708;28;20032;-80
2024/01/24 03:29:12;;;;;;;7.00;2.25;;;;;;;;;;5092592;28;20020;-80
2024/01/24 03:31:43;;;;;;;6.30;1.75;;;;;;;;;;5093709;28;20024;-80
2024/01/24 03:34:09;;;;;;;7.38;2.05;;;;;;;;;;5093763;28;20030;-80
2024/01/24 03:36:35;;;;;;;3.95;1.25;;;;;;;;;;5091716;28;20066;-79
2024/01/24 03:39:01;;;;;;;8.18;1.65;;;;;;;;;;5093962;28;20049;-80
2024/01/24 03:41:27;;;;;;;8.18;1.77;;;;;;;;;;5092358;28;20024;-80
2024/01/24 03:43:53;;;;;;;8.35;2.08;;;;;;;;;;5092792;28;20483;-79
2024/01/24 03:46:20;;;;;;;10.38;2.35;;;;;;;;;;5094328;28;20055;-78
2024/01/24 03:48:46;;;;;;;7.65;1.60;;;;;;;;;;5093097;28;20079;-78
2024/01/24 03:51:12;;;;;;;15.63;1.92;;;;;;;;;;5092791;28;20456;-79
2024/01/24 03:53:38;;;;;;;11.65;1.95;;;;;;;;;;5094141;28;20024;-79
2024/01/24 03:56:04;;;;;;;8.75;1.95;;;;;;;;;;5092092;28;20152;-79
2024/01/24 03:58:30;;;;;;;14.48;2.25;;;;;;;;;;5093120;28;20082;-80
2024/01/24 04:00:56;;;;;;;14.57;2.00;;;;;;;;;;5091993;28;20061;-79
2024/01/24 04:03:22;;;;;;;9.55;2.38;;;;;;;;;;5091697;28;20035;-79
2024/01/24 04:05:49;;;;;;;14.15;2.53;;;;;;;;;;5091961;28;20027;-78
2024/01/24 04:08:15;;;;;;;20.30;3.08;;;;;;;;;;5093087;28;20054;-78
2024/01/24 04:10:41;;;;;;;12.85;2.28;;;;;;;;;;5091853;28;20050;-78
2024/01/24 04:13:06;;;;;;;9.85;1.92;;;;;;;;;;5091902;28;20054;-78
2024/01/24 04:15:32;;;;;;;13.25;2.35;;;;;;;;;;5091915;28;20065;-78
2024/01/24 04:17:59;;;;;;;14.45;2.55;;;;;;;;;;5091528;28;20020;-78
2024/01/24 04:20:25;;;;;;;13.45;2.65;;;;;;;;;;5092907;28;20096;-78
2024/01/24 04:22:51;;;;;;;15.95;3.00;;;;;;;;;;5091525;28;20028;-78
2024/01/24 04:25:17;;;;;;;11.20;2.75;;;;;;;;;;5091492;28;20069;-78
2024/01/24 04:27:43;;;;;;;17.35;3.25;;;;;;;;;;5091570;28;20032;-78
2024/01/24 04:30:09;;;;;;;23.05;4.53;;;;;;;;;;5091412;28;20027;-79
2024/01/24 04:32:35;;;;;;;19.90;3.33;;;;;;;;;;5091611;28;20031;-80
2024/01/24 04:35:01;;;;;;;20.90;4.30;;;;;;;;;;5091588;28;20024;-81
2024/01/24 04:37:27;;;;;;;20.27;5.63;;;;;;;;;;5091334;28;20020;-79
2024/01/24 04:39:53;;;;;;;23.15;4.05;;;;;;;;;;5091613;28;20027;-79
2024/01/24 04:42:19;;;;;;;20.60;4.82;;;;;;;;;;5091149;28;20436;-78
2024/01/24 04:44:45;;;;;;;29.95;5.05;;;;;;;;;;5091601;28;20356;-79
2024/01/24 04:47:14;;;;;;;27.10;5.22;;;;;;;;;;5090886;28;20467;-79
2024/01/24 04:49:40;;;;;;;31.58;6.43;;;;;;;;;;5092322;28;20069;-78
2024/01/24 04:52:08;;;;;;;29.05;5.43;;;;;;;;;;5091430;28;20027;-79
2024/01/24 04:54:34;;;;;;;27.40;5.43;;;;;;;;;;5091096;28;20137;-78
2024/01/24 04:57:01;;;;;;;26.58;5.68;;;;;;;;;;5091311;28;20135;-78
2024/01/24 04:59:28;;;;;;;19.25;4.80;;;;;;;;;;5091089;28;20414;-78
2024/01/24 05:01:54;;;;;;;27.65;5.35;;;;;;;;;;5091199;28;20053;-78
2024/01/24 05:04:20;;;;;;;23.23;5.00;;;;;;;;;;5092956;28;20027;-77
2024/01/24 05:06:46;;;;;;;22.52;3.95;;;;;;;;;;5092713;28;20107;-76
2024/01/24 05:09:14;;;;;;;29.30;6.03;;;;;;;;;;5092221;28;20024;-78
2024/01/24 05:11:40;;;;;;;34.95;7.95;;;;;;;;;;5090772;28;20369;-79
2024/01/24 05:14:06;;;;;;;26.92;6.68;;;;;;;;;;5090940;28;20467;-79
2024/01/24 05:16:33;;;;;;;29.10;5.47;;;;;;;;;;5090527;28;20082;-79
2024/01/24 05:18:59;;;;;;;32.83;6.40;;;;;;;;;;5092030;28;20020;-78
2024/01/24 05:21:25;;;;;;;29.70;6.53;;;;;;;;;;5092093;28;20059;-78
2024/01/24 05:23:52;;;;;;;48.42;8.00;;;;;;;;;;5091063;28;20052;-79
2024/01/24 05:26:18;;;;;;;29.63;5.45;;;;;;;;;;5090701;28;20028;-79
2024/01/24 05:28:44;;;;;;;33.13;7.32;;;;;;;;;;5091205;28;20020;-78
2024/01/24 05:31:10;;;;;;;30.33;7.80;;;;;;;;;;5091344;28;20366;-78
2024/01/24 05:33:36;;;;;;;28.08;6.75;;;;;;;;;;5092062;28;20091;-79
2024/01/24 05:36:02;;;;;;;24.70;5.57;;;;;;;;;;5091483;28;20090;-80
2024/01/24 05:38:29;;;;;;;31.83;7.00;;;;;;;;;;5090529;28;20482;-79
2024/01/24 05:40:55;;;;;;;30.60;7.25;;;;;;;;;;5090832;28;20537;-79
2024/01/24 05:43:21;;;;;;;43.20;8.15;;;;;;;;;;5090683;28;20024;-79
2024/01/24 05:45:51;;;;;;;30.33;8.02;;;;;;;;;;5092127;28;20109;-79
2024/01/24 05:48:17;;;;;;;39.35;7.95;;;;;;;;;;5091313;28;20196;-78
2024/01/24 05:50:43;;;;;;;49.40;8.88;;;;;;;;;;5092540;28;20475;-81
2024/01/24 05:53:09;;;;;;;37.47;7.07;;;;;;;;;;5091686;28;20020;-78
2024/01/24 05:55:36;;;;;;;32.13;7.30;;;;;;;;;;5091498;28;20021;-79
2024/01/24 05:58:05;;;;;;;36.80;7.82;;;;;;;;;;5090657;28;20081;-80
2024/01/24 06:00:31;;;;;;;36.15;8.32;;;;;;;;;;5093339;28;20047;-80
2024/01/24 06:02:57;;;;;;;32.20;6.80;;;;;;;;;;5095958;28;20391;-80
2024/01/24 06:05:23;;;;;;;41.25;7.78;;;;;;;;;;5094197;28;20024;-80
2024/01/24 06:07:49;;;;;;;41.22;7.60;;;;;;;;;;5094138;28;20439;-79
2024/01/24 06:10:16;;;;;;;34.97;6.60;;;;;;;;;;5094055;28;20024;-81
2024/01/24 06:12:42;;;;;;;42.47;8.23;;;;;;;;;;5094289;28;20032;-80
2024/01/24 06:15:09;;;;;;;31.73;6.22;;;;;;;;;;5094074;28;20433;-79
2024/01/24 06:17:35;;;;;;;43.78;8.55;;;;;;;;;;5093840;28;20028;-81
2024/01/24 06:20:01;;;;;;;33.83;7.00;;;;;;;;;;5095181;28;20376;-81
2024/01/24 06:22:27;;;;;;;35.58;6.68;;;;;;;;;;5093839;28;20031;-81
2024/01/24 06:24:53;;;;;;;32.97;7.00;;;;;;;;;;5093931;28;20052;-80
2024/01/24 06:27:20;;;;;;;31.15;6.95;;;;;;;;;;5094973;28;20078;-80
2024/01/24 06:29:46;;;;;;;38.17;8.13;;;;;;;;;;5095119;28;20028;-81
2024/01/24 06:32:12;;;;;;;41.53;8.43;;;;;;;;;;5095181;28;20025;-78
2024/01/24 06:34:38;;;;;;;42.72;7.95;;;;;;;;;;5094650;28;20020;-78
2024/01/24 06:37:04;;;;;;;46.42;8.50;;;;;;;;;;5095148;28;20031;-77
2024/01/24 06:39:30;;;;;;;47.95;8.15;;;;;;;;;;5093145;28;20024;-78
2024/01/24 06:41:56;;;;;;;41.65;9.23;;;;;;;;;;5093224;28;20036;-77
2024/01/24 06:44:23;;;;;;;56.85;10.23;;;;;;;;;;5094430;28;20300;-80
2024/01/24 06:46:49;;;;;;;38.63;9.10;;;;;;;;;;5094707;28;20032;-78
2024/01/24 06:49:15;;;;;;;41.58;8.15;;;;;;;;;;5093321;28;20024;-81
2024/01/24 06:51:41;;;;;;;41.53;10.30;;;;;;;;;;5093463;28;20051;-79
2024/01/24 06:54:07;;;;;;;39.10;8.90;;;;;;;;;;5093279;28;20028;-78
2024/01/24 06:56:33;;;;;;;55.63;9.45;;;;;;;;;;5093115;28;20035;-82
2024/01/24 06:59:00;;;;;;;47.58;8.85;;;;;;;;;;5093812;28;20076;-82
2024/01/24 07:01:29;;;;;;;39.78;8.02;;;;;;;;;;5094128;28;20044;-82
2024/01/24 07:03:55;;;;;;;41.60;9.45;;;;;;;;;;5093918;28;20092;-81
2024/01/24 07:06:21;;;;;;;43.30;8.23;;;;;;;;;;5094390;28;20028;-81
2024/01/24 07:08:47;;;;;;;41.67;7.03;;;;;;;;;;5095328;28;20016;-84
2024/01/24 07:11:13;;;;;;;33.42;10.00;;;;;;;;;;5094661;28;20016;-84
2024/01/24 07:13:39;;;;;;;35.28;8.32;;;;;;;;;;5096569;28;20020;-83
2024/01/24 07:16:07;;;;;;;41.58;9.02;;;;;;;;;;5107447;28;20016;-80
2024/01/24 07:18:37;;;;;;;41.75;9.48;;;;;;;;;;5113405;28;20025;-80
2024/01/24 07:21:06;;;;;;;44.17;9.43;;;;;;;;;;5112480;28;20032;-81
2024/01/24 07:23:32;;;;;;;44.35;8.10;;;;;;;;;;5108101;28;20058;-83
2024/01/24 07:25:58;;;;;;;51.10;7.82;;;;;;;;;;5100982;28;20527;-84
2024/01/24 07:28:24;;;;;;;42.83;8.40;;;;;;;;;;5092944;28;20023;-84
2024/01/24 07:30:50;;;;;;;40.08;8.00;;;;;;;;;;5094245;28;20026;-83
2024/01/24 07:33:16;;;;;;;44.97;8.90;;;;;;;;;;5093161;28;20118;-84
2024/01/24 07:35:43;;;;;;;38.50;8.20;;;;;;;;;;5093284;28;20035;-84
2024/01/24 07:38:09;;;;;;;45.60;11.18;;;;;;;;;;5092929;28;20085;-84
2024/01/24 07:40:36;;;;;;;45.40;9.15;;;;;;;;;;5092724;28;20094;-83
2024/01/24 07:43:02;;;;;;;46.88;9.73;;;;;;;;;;5092654;28;20016;-84
2024/01/24 07:45:28;;;;;;;39.80;9.00;;;;;;;;;;5092237;28;20456;-83
2024/01/24 07:47:54;;;;;;;45.10;9.27;;;;;;;;;;5092510;28;20369;-83
2024/01/24 07:50:20;;;;;;;45.60;9.23;;;;;;;;;;5093271;28;20315;-83
2024/01/24 07:52:46;;;;;;;44.53;10.02;;;;;;;;;;5092400;28;20028;-84
2024/01/24 07:55:13;;;;;;;50.65;8.30;;;;;;;;;;5093370;28;20089;-83
2024/01/24 07:57:40;;;;;;;54.63;9.68;;;;;;;;;;5092473;28;20028;-82
2024/01/24 08:00:06;;;;;;;42.80;10.60;;;;;;;;;;5094499;28;20027;-84
2024/01/24 08:02:32;;;;;;;54.15;12.40;;;;;;;;;;5093429;28;20040;-81
2024/01/24 08:04:59;;;;;;;35.40;8.57;;;;;;;;;;5094203;28;20077;-82
2024/01/24 08:07:33;;;;;;;27.27;6.00;;;;;;;;;;5094458;28;20036;-84
2024/01/24 08:10:00;;;;;;;45.22;8.98;;;;;;;;;;5096945;28;20052;-84
2024/01/24 08:12:26;;;;;;;41.40;8.45;;;;;;;;;;5092107;28;20017;-84
2024/01/24 08:14:53;;;;;;;51.92;8.60;;;;;;;;;;5098967;28;20028;-84
2024/01/24 08:17:19;;;;;;;51.78;9.95;;;;;;;;;;5092280;28;20471;-83
2024/01/24 08:19:45;;;;;;;33.88;7.47;;;;;;;;;;5095036;28;20036;-83
2024/01/24 08:22:11;;;;;;;39.22;8.38;;;;;;;;;;5092664;28;20031;-83
2024/01/24 08:24:37;;;;;;;43.88;8.57;;;;;;;;;;5094179;28;20115;-83
2024/01/24 08:27:03;;;;;;;41.30;8.80;;;;;;;;;;5093518;28;20527;-81
2024/01/24 08:29:29;;;;;;;40.40;8.00;;;;;;;;;;5093292;28;20031;-81
2024/01/24 08:31:55;;;;;;;42.42;9.13;;;;;;;;;;5093950;28;20035;-83
2024/01/24 08:34:22;;;;;;;48.58;10.50;;;;;;;;;;5093785;28;20467;-84
2024/01/24 08:36:48;;;;;;;41.08;8.73;;;;;;;;;;5093951;28;20109;-83
2024/01/24 08:39:14;;;;;;;40.95;7.60;;;;;;;;;;5093575;28;20028;-84
2024/01/24 08:41:40;;;;;;;44.80;7.60;;;;;;;;;;5094709;28;20024;-83
2024/01/24 08:44:07;;;;;;;45.03;9.02;;;;;;;;;;5095460;28;20012;-83
2024/01/24 08:46:33;;;;;;;49.20;8.40;;;;;;;;;;5092601;28;20032;-84
2024/01/24 08:48:59;;;;;;;38.03;8.02;;;;;;;;;;5093345;28;20028;-84
2024/01/24 08:51:29;;;;;;;47.42;8.23;;;;;;;;;;5092547;28;20115;-83
2024/01/24 08:53:55;;;;;;;41.30;8.48;;;;;;;;;;5092843;28;20028;-83
2024/01/24 08:56:21;;;;;;;43.50;7.97;;;;;;;;;;5092768;28;20031;-83
2024/01/24 08:58:47;;;;;;;36.28;8.23;;;;;;;;;;5093062;28;20393;-84
2024/01/24 09:01:13;;;;;;;53.47;10.35;;;;;;;;;;5093543;28;20047;-84
2024/01/24 09:03:40;;;;;;;34.20;7.97;;;;;;;;;;5092712;28;20467;-83
2024/01/24 09:06:06;;;;;;;50.10;11.20;;;;;;;;;;5092694;28;20020;-84
2024/01/24 09:08:32;;;;;;;39.25;8.02;;;;;;;;;;5093296;28;20020;-84
2024/01/24 09:10:58;;;;;;;53.15;10.00;;;;;;;;;;5095796;28;20486;-84
2024/01/24 09:13:24;;;;;;;43.10;8.15;;;;;;;;;;5093435;28;20115;-83
2024/01/24 09:15:51;;;;;;;47.70;10.07;;;;;;;;;;5094494;28;20420;-84
2024/01/24 09:18:20;;;;;;;38.40;7.40;;;;;;;;;;5096723;28;20075;-83
2024/01/24 09:20:46;;;;;;;50.58;11.40;;;;;;;;;;5097393;28;20374;-84
2024/01/24 09:23:12;;;;;;;45.50;10.27;;;;;;;;;;5099371;28;20115;-83
2024/01/24 09:25:38;;;;;;;46.00;10.27;;;;;;;;;;5108701;28;20027;-80
2024/01/24 09:28:08;;;;;;;43.00;9.88;;;;;;;;;;5114107;28;20037;-80
2024/01/24 09:30:34;;;;;;;37.87;8.43;;;;;;;;;;5112613;28;20031;-82
2024/01/24 09:33:00;;;;;;;39.63;9.20;;;;;;;;;;5097170;28;20388;-84
2024/01/24 09:35:26;;;;;;;43.83;8.80;;;;;;;;;;5095050;28;20031;-84
2024/01/24 09:37:52;;;;;;;47.58;10.25;;;;;;;;;;5095300;28;20138;-83
2024/01/24 09:40:18;;;;;;;39.13;9.10;;;;;;;;;;5095524;28;20020;-84
2024/01/24 09:42:45;;;;;;;41.60;9.20;;;;;;;;;;5096598;28;20073;-84
2024/01/24 09:45:11;;;;;;;36.10;10.68;;;;;;;;;;5095276;28;20144;-84
2024/01/24 09:47:38;;;;;;;53.13;10.85;;;;;;;;;;5095829;28;20028;-83
2024/01/24 09:50:04;;;;;;;42.78;9.05;;;;;;;;;;5095714;28;20055;-83
2024/01/24 09:52:34;;;;;;;37.42;8.77;;;;;;;;;;5095805;28;20146;-83
2024/01/24 09:55:04;;;;;;;31.98;8.43;;;;;;;;;;5095138;28;20024;-83
2024/01/24 09:57:31;;;;;;;46.58;9.73;;;;;;;;;;5094933;28;20028;-83
2024/01/24 09:59:57;;;;;;;38.95;7.53;;;;;;;;;;5096244;28;20399;-84
2024/01/24 10:02:25;;;;;;;32.85;8.15;;;;;;;;;;5097203;28;20369;-83
2024/01/24 10:04:51;;;;;;;33.80;8.20;;;;;;;;;;5096833;28;20096;-82
2024/01/24 10:07:19;;;;;;;41.53;9.45;;;;;;;;;;5095947;28;20032;-83
2024/01/24 10:09:45;;;;;;;43.17;7.57;;;;;;;;;;5095957;28;20062;-84
2024/01/24 10:12:11;;;;;;;37.35;8.05;;;;;;;;;;5096634;28;20024;-83
2024/01/24 10:14:40;;;;;;;43.80;9.32;;;;;;;;;;5096406;28;20028;-84
2024/01/24 10:17:07;;;;;;;37.75;8.82;;;;;;;;;;5095953;28;20440;-84
2024/01/24 10:19:33;;;;;;;39.80;9.38;;;;;;;;;;5094840;28;20063;-84
2024/01/24 10:21:59;;;;;;;46.67;8.95;;;;;;;;;;5095269;28;20028;-84
2024/01/24 10:24:25;;;;;;;40.63;9.00;;;;;;;;;;5097623;28;20028;-84
2024/01/24 10:26:52;;;;;;;37.97;7.25;;;;;;;;;;5095950;28;20032;-82
2024/01/24 10:29:18;;;;;;;31.55;6.43;;;;;;;;;;5095306;28;20048;-84
2024/01/24 10:31:44;;;;;;;36.47;7.45;;;;;;;;;;5095932;28;20028;-84
2024/01/24 10:34:10;;;;;;;47.08;10.05;;;;;;;;;;5095907;28;20044;-83
2024/01/24 10:36:38;;;;;;;40.92;9.18;;;;;;;;;;5095720;28;20060;-83
2024/01/24 10:39:07;;;;;;;31.95;7.15;;;;;;;;;;5095643;28;20466;-83
2024/01/24 10:41:38;;;;;;;32.45;7.03;;;;;;;;;;5094977;28;20103;-84
2024/01/24 10:44:09;;;;;;;43.58;9.15;;;;;;;;;;5097077;28;20016;-84
2024/01/24 10:46:36;;;;;;;40.15;8.15;;;;;;;;;;5096742;28;20036;-83
2024/01/24 10:49:03;;;;;;;35.47;8.48;;;;;;;;;;5096114;28;20085;-83
2024/01/24 10:51:30;;;;;;;30.58;7.30;;;;;;;;;;5095703;28;20021;-83
2024/01/24 10:53:57;;;;;;;37.22;8.50;;;;;;;;;;5097522;28;20024;-83
2024/01/24 10:56:24;;;;;;;31.13;8.55;;;;;;;;;;5095724;28;20382;-83
2024/01/24 10:58:51;;;;;;;37.50;8.70;;;;;;;;;;5094776;28;20020;-83
2024/01/24 11:01:17;;;;;;;52.55;9.38;;;;;;;;;;5095035;28;20059;-84
2024/01/24 11:03:46;;;;;;;30.30;7.25;;;;;;;;;;5096260;28;20048;-83
2024/01/24 11:06:14;;;;;;;42.13;9.35;;;;;;;;;;5094836;28;20291;-84
2024/01/24 11:08:48;;;;;;;33.33;7.47;;;;;;;;;;5094682;28;20375;-83
2024/01/24 11:11:14;;;;;;;31.77;7.43;;;;;;;;;;5095217;28;20020;-83
2024/01/24 11:13:43;;;;;;;34.20;8.60;;;;;;;;;;5095420;28;20031;-83
2024/01/24 11:16:29;;;;;;;36.90;8.27;;;;;;;;;;5094993;28;20020;-83
2024/01/24 11:18:59;;;;;;;43.38;7.65;;;;;;;;;;5094555;28;20050;-83
2024/01/24 11:21:28;;;;;;;36.03;7.60;;;;;;;;;;5094044;28;20042;-84
2024/01/24 11:23:54;;;;;;;30.70;7.35;;;;;;;;;;5095142;28;20028;-84
2024/01/24 11:26:20;;;;;;;32.97;7.25;;;;;;;;;;5097494;28;20118;-84
2024/01/24 11:28:46;;;;;;;39.00;9.00;;;;;;;;;;5095906;28;20035;-84
2024/01/24 11:31:13;;;;;;;32.72;5.82;;;;;;;;;;5099951;28;20016;-83
2024/01/24 11:33:58;;;;;;;34.25;8.52;;;;;;;;;;5101057;28;20020;-83
2024/01/24 11:36:26;;;;;;;34.55;8.10;;;;;;;;;;5107190;28;20020;-83
2024/01/24 11:38:52;;;;;;;28.63;6.45;;;;;;;;;;5114025;28;20024;-82
2024/01/24 11:41:22;;;;;;;33.47;8.10;;;;;;;;;;5113729;28;20046;-83
2024/01/24 11:43:49;;;;;;;31.17;8.63;;;;;;;;;;5105804;28;20020;-84
2024/01/24 11:46:15;;;;;;;40.28;9.20;;;;;;;;;;5097049;28;20083;-82
2024/01/24 11:48:41;;;;;;;42.58;8.95;;;;;;;;;;5095197;28;20020;-83
2024/01/24 11:51:15;;;;;;;43.15;9.10;;;;;;;;;;5094771;28;20027;-84
2024/01/24 11:53:41;;;;;;;35.92;7.72;;;;;;;;;;5094602;28;20020;-84
2024/01/24 11:56:08;;;;;;;30.67;7.13;;;;;;;;;;5095621;28;20032;-84
2024/01/24 11:58:34;;;;;;;39.05;7.70;;;;;;;;;;5096115;28;20032;-85
2024/01/24 12:01:07;;;;;;;31.27;7.57;;;;;;;;;;5094592;28;20062;-84
2024/01/24 12:03:33;;;;;;;36.00;7.38;;;;;;;;;;5095780;28;20031;-85
2024/01/24 12:06:00;;;;;;;38.30;8.35;;;;;;;;;;5098894;28;20024;-85
2024/01/24 12:08:26;;;;;;;35.42;7.40;;;;;;;;;;5096151;28;20043;-85
2024/01/24 12:10:52;;;;;;;35.25;8.57;;;;;;;;;;5095000;28;20051;-84
2024/01/24 12:13:19;;;;;;;34.85;8.43;;;;;;;;;;5095297;28;20051;-85
2024/01/24 12:15:46;;;;;;;36.47;7.50;;;;;;;;;;5096586;28;20016;-84
2024/01/24 12:18:13;;;;;;;31.00;7.13;;;;;;;;;;5095681;28;20021;-85
2024/01/24 12:20:45;;;;;;;39.78;6.97;;;;;;;;;;5092355;28;20017;-85
2024/01/24 12:23:11;;;;;;;30.58;5.28;;;;;;;;;;5092415;28;20069;-84
2024/01/24 12:25:37;;;;;;;37.70;8.35;;;;;;;;;;5092496;28;20075;-85
2024/01/24 12:28:05;;;;;;;34.70;7.65;;;;;;;;;;5094018;28;20028;-86
2024/01/24 12:30:34;;;;;;;27.05;6.53;;;;;;;;;;5093524;28;20106;-85
2024/01/24 12:33:00;;;;;;;33.53;6.30;;;;;;;;;;5093210;28;20468;-85
2024/01/24 12:35:28;;;;;;;31.10;7.63;;;;;;;;;;5092797;28;20031;-86
2024/01/24 12:38:04;;;;;;;35.17;7.63;;;;;;;;;;5094694;28;20492;-84
2024/01/24 12:40:31;;;;;;;26.30;6.03;;;;;;;;;;5093982;28;20173;-85
2024/01/24 12:42:58;;;;;;;44.83;7.95;;;;;;;;;;5093263;28;20023;-85
2024/01/24 12:45:25;;;;;;;30.30;7.18;;;;;;;;;;5092336;28;20031;-85
2024/01/24 12:47:51;;;;;;;32.22;7.22;;;;;;;;;;5091753;28;20050;-85
2024/01/24 12:50:17;;;;;;;29.92;7.40;;;;;;;;;;5092496;28;20023;-85
2024/01/24 12:52:44;;;;;;;31.55;6.03;;;;;;;;;;5091621;28;20024;-85
2024/01/24 12:55:11;;;;;;;26.92;6.28;;;;;;;;;;5091869;28;20107;-85
2024/01/24 12:57:37;;;;;;;27.02;6.07;;;;;;;;;;5091763;28;20020;-85
2024/01/24 13:00:05;;;;;;;34.78;6.45;;;;;;;;;;5092313;28;20306;-85
2024/01/24 13:02:31;;;;;;;26.92;5.57;;;;;;;;;;5093539;28;20384;-85
2024/01/24 13:04:57;;;;;;;33.50;6.90;;;;;;;;;;5091661;28;20024;-86
2024/01/24 13:07:23;;;;;;;31.40;5.45;;;;;;;;;;5091957;28;20031;-85
2024/01/24 13:09:49;;;;;;;32.88;6.90;;;;;;;;;;5098087;28;20172;-84
2024/01/24 13:12:15;;;;;;;19.83;5.75;;;;;;;;;;5098362;28;20046;-84
2024/01/24 13:14:41;;;;;;;30.10;5.47;;;;;;;;;;5098434;28;20020;-84
2024/01/24 13:17:08;;;;;;;31.17;7.22;;;;;;;;;;5099169;28;20106;-84
2024/01/24 13:19:34;;;;;;;34.10;7.80;;;;;;;;;;5098985;28;20089;-85
2024/01/24 13:22:00;;;;;;;33.55;7.95;;;;;;;;;;5098862;28;20466;-85
2024/01/24 13:24:27;;;;;;;29.85;6.40;;;;;;;;;;5098725;28;20478;-85
2024/01/24 13:26:55;;;;;;;25.75;5.60;;;;;;;;;;5097941;28;20472;-85
2024/01/24 13:29:22;;;;;;;24.92;7.05;;;;;;;;;;5098645;28;20115;-85
2024/01/24 13:31:48;;;;;;;29.98;6.82;;;;;;;;;;5098792;28;20028;-86
2024/01/24 13:34:14;;;;;;;27.70;7.70;;;;;;;;;;5098822;28;20027;-85
2024/01/24 13:36:46;;;;;;;32.10;7.32;;;;;;;;;;5100045;28;20111;-84
2024/01/24 13:39:14;;;;;;;23.80;5.60;;;;;;;;;;5099977;28;20027;-85
2024/01/24 13:41:43;;;;;;;41.65;7.32;;;;;;;;;;5101991;28;20020;-84
2024/01/24 13:44:10;;;;;;;34.20;6.63;;;;;;;;;;5103171;28;20028;-86
2024/01/24 13:46:36;;;;;;;33.90;5.97;;;;;;;;;;5105880;28;20043;-86
2024/01/24 13:49:08;;;;;;;25.15;4.88;;;;;;;;;;5121095;28;20012;-85
2024/01/24 13:51:35;;;;;;;27.10;5.32;;;;;;;;;;5122995;27;20012;-84
2024/01/24 13:54:01;;;;;;;33.20;6.20;;;;;;;;;;5121861;27;20015;-86
2024/01/24 13:56:27;;;;;;;34.92;7.65;;;;;;;;;;5112784;28;20039;-85
2024/01/24 13:58:53;;;;;;;30.48;6.47;;;;;;;;;;5101818;28;20020;-86
2024/01/24 14:01:19;;;;;;;37.92;7.35;;;;;;;;;;5100300;28;20050;-85
2024/01/24 14:03:47;;;;;;;32.33;7.78;;;;;;;;;;5100787;28;20387;-85
2024/01/24 14:06:13;;;;;;;32.47;6.60;;;;;;;;;;5100033;28;20031;-87
2024/01/24 14:08:40;;;;;;;41.45;8.40;;;;;;;;;;5102760;28;20028;-86
2024/01/24 14:11:10;;;;;;;27.45;6.10;;;;;;;;;;5101587;28;20020;-87
2024/01/24 14:13:37;;;;;;;29.45;6.03;;;;;;;;;;5102975;28;20031;-89
2024/01/24 14:16:03;;;;;;;36.10;7.35;;;;;;;;;;5101581;28;20024;-87
2024/01/24 14:18:30;;;;;;;27.90;6.18;;;;;;;;;;5102567;28;20077;-87
2024/01/24 14:20:56;;;;;;;22.80;5.50;;;;;;;;;;5099213;28;20027;-87
2024/01/24 14:23:22;;;;;;;31.20;6.30;;;;;;;;;;5098379;28;20020;-87
2024/01/24 14:25:48;;;;;;;29.35;7.38;;;;;;;;;;5099160;28;20383;-87
2024/01/24 14:28:16;;;;;;;35.85;8.55;;;;;;;;;;5098126;28;20491;-88
2024/01/24 14:30:42;;;;;;;34.90;6.68;;;;;;;;;;5098643;28;20032;-87